Time;durP1;ratioP1;P1;durP2;ratioP2;P2;SDS_P1;SDS_P2;PMS_P1;PMS_P2;Temp;Humidity;BMP_temperature;BMP_pressure;BME280_temperature;BME280_humidity;BME280_pressure;Samples;Min_cycle;Max_cycle;Signal;HPM_P1;HPM_P2
2022/01/08 00:00:08;;;;;;;6.43;3.28;;;1.80;99.90;;;;;;6179949;23;20075;-83
2022/01/08 00:02:34;;;;;;;8.32;3.33;;;1.80;99.90;;;;;;6181410;23;20021;-83
2022/01/08 00:05:00;;;;;;;7.38;3.60;;;1.70;99.90;;;;;;6180524;23;20037;-83
2022/01/08 00:07:26;;;;;;;8.75;3.70;;;1.70;99.90;;;;;;6181284;23;20084;-82
2022/01/08 00:09:52;;;;;;;7.40;3.47;;;1.70;99.90;;;;;;6180265;23;20009;-83
2022/01/08 00:12:18;;;;;;;8.43;4.47;;;1.60;99.90;;;;;;6181244;23;20621;-83
2022/01/08 00:14:43;;;;;;;6.93;3.92;;;1.50;99.90;;;;;;6181801;23;20023;-83
2022/01/08 00:17:09;;;;;;;8.48;4.50;;;1.50;99.90;;;;;;6154612;23;20416;-83
2022/01/08 00:19:34;;;;;;;13.15;4.60;;;1.50;99.90;;;;;;6179746;23;20499;-83
2022/01/08 00:22:00;;;;;;;10.50;4.22;;;1.50;99.90;;;;;;6181079;23;20352;-83
2022/01/08 00:24:26;;;;;;;10.63;4.43;;;1.50;99.90;;;;;;6181335;23;20017;-83
2022/01/08 00:26:51;;;;;;;10.32;4.90;;;1.50;99.90;;;;;;6180608;23;20020;-82
2022/01/08 00:29:17;;;;;;;9.13;4.93;;;1.50;99.90;;;;;;6182447;23;20019;-83
2022/01/08 00:31:43;;;;;;;9.98;5.22;;;1.50;99.90;;;;;;6180798;23;20021;-83
2022/01/08 00:34:08;;;;;;;10.60;5.20;;;1.50;99.90;;;;;;6155316;23;20474;-82
2022/01/08 00:36:34;;;;;;;12.70;5.95;;;1.50;99.90;;;;;;6180790;23;20031;-82
2022/01/08 00:39:00;;;;;;;12.38;5.65;;;1.40;99.90;;;;;;6181164;23;20040;-83
2022/01/08 00:41:25;;;;;;;11.23;6.35;;;1.40;99.90;;;;;;6180064;23;20028;-83
2022/01/08 00:43:52;;;;;;;10.27;5.38;;;1.40;99.90;;;;;;6181050;23;20082;-83
2022/01/08 00:46:17;;;;;;;11.32;5.63;;;1.40;99.90;;;;;;6180046;23;20013;-83
2022/01/08 00:48:44;;;;;;;11.77;5.35;;;1.40;99.90;;;;;;6179916;23;20479;-82
2022/01/08 00:51:10;;;;;;;10.10;4.97;;;1.30;99.90;;;;;;6180281;23;20019;-82
2022/01/08 00:53:36;;;;;;;10.75;5.25;;;1.30;99.90;;;;;;6179984;23;20096;-83
2022/01/08 00:56:02;;;;;;;9.10;4.97;;;1.20;99.90;;;;;;6155509;23;20471;-82
2022/01/08 00:58:28;;;;;;;9.68;4.40;;;1.20;99.90;;;;;;6181487;23;20017;-83
2022/01/08 01:00:53;;;;;;;11.60;4.55;;;1.10;99.90;;;;;;6184202;23;20379;-83
2022/01/08 01:03:19;;;;;;;9.25;5.18;;;1.10;99.90;;;;;;6182039;23;20024;-82
2022/01/08 01:05:45;;;;;;;10.75;4.57;;;1.10;99.90;;;;;;6158528;23;20069;-83
2022/01/08 01:08:11;;;;;;;11.55;5.47;;;1.10;99.90;;;;;;6157909;23;20063;-83
2022/01/08 01:10:36;;;;;;;9.48;4.25;;;1.10;99.90;;;;;;6182480;23;20036;-83
2022/01/08 01:13:02;;;;;;;10.25;4.78;;;1.10;99.90;;;;;;6183496;23;20075;-83
2022/01/08 01:15:28;;;;;;;15.73;5.70;;;1.20;99.90;;;;;;6182121;23;20021;-83
2022/01/08 01:17:54;;;;;;;16.33;5.20;;;1.20;99.90;;;;;;6181834;23;20013;-80
2022/01/08 01:20:21;;;;;;;11.25;5.32;;;1.20;99.90;;;;;;6182349;23;20012;-81
2022/01/08 01:22:59;;;;;;;9.00;5.18;;;1.30;99.90;;;;;;6156423;23;20009;-83
2022/01/08 01:25:39;;;;;;;11.38;5.00;;;1.40;99.90;;;;;;6156042;23;20021;-83
2022/01/08 01:28:27;;;;;;;11.15;4.78;;;1.40;99.90;;;;;;6182572;23;20008;-83
2022/01/08 01:47:17;;;;;;;10.32;2.72;;;1.60;99.90;;;;;;6182399;23;20316;-83
2022/01/08 01:49:45;;;;;;;6.07;2.47;;;1.60;99.90;;;;;;6181816;23;20028;-83
2022/01/08 01:52:14;;;;;;;8.38;2.97;;;1.70;99.90;;;;;;6182256;23;20021;-83
2022/01/08 01:54:41;;;;;;;10.93;3.17;;;1.70;99.90;;;;;;6181961;23;20020;-83
2022/01/08 01:57:08;;;;;;;5.68;2.22;;;1.60;99.90;;;;;;6181954;23;20016;-83
2022/01/08 01:59:35;;;;;;;10.85;3.08;;;1.60;99.90;;;;;;6182166;23;20024;-83
2022/01/08 02:02:01;;;;;;;12.60;2.85;;;1.60;99.90;;;;;;6182658;23;20021;-83
2022/01/08 02:04:27;;;;;;;6.60;2.70;;;1.60;99.90;;;;;;6182260;23;20012;-83
2022/01/08 02:06:53;;;;;;;6.63;2.42;;;1.50;99.90;;;;;;6158455;23;20023;-83
2022/01/08 02:09:18;;;;;;;11.63;2.60;;;1.50;99.90;;;;;;6181398;23;20044;-83
2022/01/08 02:12:02;;;;;;;4.93;2.35;;;1.50;99.90;;;;;;6158243;23;20052;-83
2022/01/08 02:14:30;;;;;;;7.25;2.60;;;1.50;99.90;;;;;;6158053;23;20016;-83
2022/01/08 02:16:56;;;;;;;6.38;2.45;;;1.50;99.90;;;;;;6181972;23;20020;-82
2022/01/08 02:19:22;;;;;;;12.50;3.13;;;1.40;99.90;;;;;;6180508;23;20024;-83
2022/01/08 02:21:53;;;;;;;12.63;3.08;;;1.40;99.90;;;;;;6157798;23;20504;-82
2022/01/08 02:24:19;;;;;;;7.65;2.72;;;1.40;99.90;;;;;;6181718;23;20021;-83
2022/01/08 02:26:45;;;;;;;10.40;3.40;;;1.40;99.90;;;;;;6157432;23;20009;-83
2022/01/08 02:29:15;;;;;;;7.85;3.38;;;1.40;99.90;;;;;;6181843;23;20435;-82
2022/01/08 02:31:51;;;;;;;8.77;3.25;;;1.40;99.90;;;;;;6156356;23;20469;-82
2022/01/08 02:34:16;;;;;;;14.35;4.25;;;1.40;99.90;;;;;;6181332;23;20343;-83
2022/01/08 02:36:42;;;;;;;8.13;5.20;;;1.40;99.90;;;;;;6181572;23;20053;-82
2022/01/08 02:39:08;;;;;;;9.63;4.10;;;1.40;99.90;;;;;;6181655;23;20024;-82
2022/01/08 02:41:33;;;;;;;13.35;4.00;;;1.40;99.90;;;;;;6157342;23;20084;-83
2022/01/08 02:43:59;;;;;;;9.23;3.92;;;1.40;99.90;;;;;;6181875;23;20017;-82
2022/01/08 02:46:28;;;;;;;8.23;4.65;;;1.40;99.90;;;;;;6183333;23;20313;-83
2022/01/08 02:48:53;;;;;;;7.95;3.67;;;1.40;99.90;;;;;;6182593;23;20067;-83
2022/01/08 02:51:19;;;;;;;11.13;4.38;;;1.40;99.90;;;;;;6182434;23;20076;-83
2022/01/08 02:53:45;;;;;;;13.27;5.00;;;1.40;99.90;;;;;;6156556;23;20040;-82
2022/01/08 02:56:11;;;;;;;14.38;4.57;;;1.40;99.90;;;;;;6184145;23;20123;-82
2022/01/08 02:58:36;;;;;;;14.45;4.32;;;1.30;99.90;;;;;;6182109;23;20436;-83
2022/01/08 03:01:02;;;;;;;9.70;4.05;;;1.30;99.90;;;;;;6181391;23;20017;-83
2022/01/08 03:03:28;;;;;;;9.48;4.30;;;1.30;99.90;;;;;;6187767;23;20023;-83
2022/01/08 03:05:53;;;;;;;11.65;4.50;;;1.20;99.90;;;;;;6187228;23;20013;-83
2022/01/08 03:08:19;;;;;;;10.02;4.45;;;1.20;99.90;;;;;;6157539;23;20491;-83
2022/01/08 03:10:45;;;;;;;14.43;4.95;;;1.10;99.90;;;;;;6183601;23;20037;-83
2022/01/08 03:13:10;;;;;;;11.25;3.90;;;1.10;99.90;;;;;;6182766;23;20108;-83
2022/01/08 03:15:39;;;;;;;10.43;4.70;;;1.10;99.90;;;;;;6183032;23;20019;-82
2022/01/08 03:18:06;;;;;;;12.40;6.03;;;1.10;99.90;;;;;;6156633;23;20107;-83
2022/01/08 03:20:33;;;;;;;10.52;3.90;;;1.10;99.90;;;;;;6132053;23;20013;-83
2022/01/08 03:23:04;;;;;;;14.70;4.70;;;1.10;99.90;;;;;;6156389;23;20013;-82
2022/01/08 03:25:31;;;;;;;11.43;4.90;;;1.10;99.90;;;;;;6180579;23;20013;-83
2022/01/08 03:27:57;;;;;;;10.38;4.65;;;1.10;99.90;;;;;;6161793;23;20428;-83
2022/01/08 03:30:24;;;;;;;8.52;4.88;;;1.10;99.90;;;;;;6155549;23;20025;-82
2022/01/08 03:32:51;;;;;;;12.00;5.57;;;1.10;99.90;;;;;;6159874;23;20024;-82
2022/01/08 03:35:17;;;;;;;10.32;5.68;;;1.10;99.90;;;;;;6180394;23;20098;-83
2022/01/08 03:37:43;;;;;;;13.88;5.85;;;1.10;99.90;;;;;;6182426;23;20017;-82
2022/01/08 03:40:09;;;;;;;9.73;4.95;;;1.20;99.90;;;;;;6180005;23;20352;-82
2022/01/08 03:42:35;;;;;;;11.40;4.95;;;1.20;99.90;;;;;;6180828;23;20048;-82
2022/01/08 03:45:00;;;;;;;11.18;5.55;;;1.20;99.90;;;;;;6156330;23;20117;-83
2022/01/08 03:49:52;;;;;;;8.30;4.80;;;1.20;99.90;;;;;;6213186;23;20024;-82
2022/01/08 03:52:18;;;;;;;15.15;4.78;;;1.30;99.90;;;;;;6181679;23;20423;-82
2022/01/08 03:54:43;;;;;;;12.25;5.00;;;1.30;99.90;;;;;;6183843;23;20000;-83
2022/01/08 03:57:09;;;;;;;11.40;4.13;;;1.30;99.90;;;;;;6182006;23;20402;-83
2022/01/08 03:59:35;;;;;;;9.07;3.72;;;1.30;99.90;;;;;;6158095;23;20048;-83
2022/01/08 04:02:01;;;;;;;9.27;3.75;;;1.30;99.90;;;;;;6181942;23;20013;-83
2022/01/08 04:04:26;;;;;;;11.10;3.97;;;1.30;99.90;;;;;;6182369;23;20014;-83
2022/01/08 04:06:52;;;;;;;7.45;3.47;;;1.40;99.90;;;;;;6161781;23;20013;-83
2022/01/08 04:09:18;;;;;;;7.47;3.00;;;1.40;99.90;;;;;;6181166;23;20028;-83
2022/01/08 04:11:44;;;;;;;8.15;2.72;;;1.40;99.90;;;;;;6183979;23;20081;-83
2022/01/08 04:14:10;;;;;;;8.35;3.17;;;1.40;99.90;;;;;;6157235;23;20108;-83
2022/01/08 04:16:40;;;;;;;8.40;2.80;;;1.40;99.90;;;;;;6158034;23;20017;-83
2022/01/08 04:19:06;;;;;;;9.52;2.60;;;1.40;99.90;;;;;;6156826;23;20281;-83
2022/01/08 04:24:00;;;;;;;5.35;2.20;;;1.40;99.90;;;;;;6181707;23;21015;-83
2022/01/08 04:26:27;;;;;;;9.45;2.72;;;1.40;99.90;;;;;;6157668;23;20048;-83
2022/01/08 04:28:54;;;;;;;7.88;2.22;;;1.30;99.90;;;;;;6186142;23;20091;-83
2022/01/08 04:31:20;;;;;;;8.25;2.60;;;1.30;99.90;;;;;;6182338;23;20009;-80
2022/01/08 04:33:45;;;;;;;8.80;2.40;;;1.30;99.90;;;;;;6186059;23;20522;-81
2022/01/08 04:36:11;;;;;;;6.45;2.13;;;1.30;99.90;;;;;;6184006;23;20091;-81
2022/01/08 04:38:37;;;;;;;6.57;2.30;;;1.20;99.90;;;;;;6159876;23;20013;-82
2022/01/08 04:41:03;;;;;;;7.10;2.30;;;1.20;99.90;;;;;;6183138;23;20340;-82
2022/01/08 04:43:29;;;;;;;7.32;2.33;;;1.10;99.90;;;;;;6184055;23;20017;-81
2022/01/08 04:45:55;;;;;;;6.70;2.50;;;1.10;99.90;;;;;;6163886;23;20023;-83
2022/01/08 04:48:21;;;;;;;8.02;2.25;;;1.10;99.90;;;;;;6183831;23;20016;-83
2022/01/08 04:50:47;;;;;;;7.68;2.78;;;1.10;99.90;;;;;;6186910;23;20017;-82
2022/01/08 04:53:12;;;;;;;4.60;2.10;;;1.10;99.90;;;;;;6183934;23;20005;-82
2022/01/08 04:55:38;;;;;;;6.50;2.45;;;1.00;99.90;;;;;;6159865;23;20056;-82
2022/01/08 04:58:05;;;;;;;7.00;2.22;;;1.00;99.90;;;;;;6184123;23;20434;-82
2022/01/08 05:00:31;;;;;;;10.95;2.63;;;0.90;99.90;;;;;;6182837;23;20059;-82
2022/01/08 05:02:57;;;;;;;5.72;2.55;;;0.90;99.90;;;;;;6183515;23;20017;-82
2022/01/08 05:05:23;;;;;;;10.02;3.53;;;0.90;99.90;;;;;;6156123;23;20402;-83
2022/01/08 05:07:49;;;;;;;5.60;2.55;;;0.90;99.90;;;;;;6188052;23;20012;-83
2022/01/08 05:10:15;;;;;;;5.80;2.78;;;0.90;99.90;;;;;;6163528;23;20091;-83
2022/01/08 05:12:41;;;;;;;8.02;2.55;;;0.80;99.90;;;;;;6189369;23;20016;-82
2022/01/08 05:15:07;;;;;;;4.72;2.30;;;0.80;99.90;;;;;;6164527;23;20389;-82
2022/01/08 05:17:37;;;;;;;7.22;2.92;;;0.80;99.90;;;;;;6188294;23;20455;-83
2022/01/08 05:20:06;;;;;;;6.60;2.40;;;0.70;99.90;;;;;;6187432;23;20021;-82
2022/01/08 05:25:18;;;;;;;8.80;2.85;;;0.70;99.90;;;;;;6186744;23;20024;-82
2022/01/08 05:27:44;;;;;;;11.13;3.28;;;0.70;99.90;;;;;;6188185;23;20066;-82
2022/01/08 05:30:12;;;;;;;11.25;2.25;;;0.70;99.90;;;;;;6188389;23;20031;-82
2022/01/08 05:32:38;;;;;;;6.10;2.97;;;0.70;99.90;;;;;;6188732;23;20443;-81
2022/01/08 05:35:04;;;;;;;7.53;2.92;;;0.70;99.90;;;;;;6188868;23;20070;-82
2022/01/08 05:37:30;;;;;;;10.25;3.15;;;0.70;99.90;;;;;;6163707;23;20315;-82
2022/01/08 05:39:56;;;;;;;8.30;2.67;;;0.70;99.90;;;;;;6164591;23;20104;-82
2022/01/08 05:42:22;;;;;;;9.25;3.13;;;0.60;99.90;;;;;;6164353;23;20016;-82
2022/01/08 05:44:47;;;;;;;8.02;2.65;;;0.60;99.90;;;;;;6163398;23;20455;-82
2022/01/08 05:47:14;;;;;;;10.23;3.17;;;0.60;99.90;;;;;;6189055;23;20079;-82
2022/01/08 05:49:39;;;;;;;9.48;3.10;;;0.60;99.90;;;;;;6188539;23;20044;-82
2022/01/08 05:52:07;;;;;;;9.40;3.28;;;0.60;99.90;;;;;;6163327;23;20024;-82
2022/01/08 05:54:33;;;;;;;7.47;3.17;;;0.50;99.90;;;;;;6162190;23;20016;-82
2022/01/08 05:56:58;;;;;;;7.45;3.20;;;0.50;99.90;;;;;;6163594;23;20126;-82
2022/01/08 05:59:26;;;;;;;9.18;2.90;;;0.50;99.90;;;;;;6188917;23;20013;-82
2022/01/08 06:01:53;;;;;;;9.57;2.83;;;0.50;99.90;;;;;;6187168;23;20032;-82
2022/01/08 06:04:18;;;;;;;7.05;2.90;;;0.50;99.90;;;;;;6182451;23;20025;-82
2022/01/08 06:06:45;;;;;;;8.85;2.85;;;0.50;99.90;;;;;;6158412;23;20028;-82
2022/01/08 06:09:11;;;;;;;7.43;2.90;;;0.50;99.90;;;;;;6157582;23;20039;-82
2022/01/08 06:11:36;;;;;;;9.75;2.42;;;0.50;99.90;;;;;;6182996;23;20078;-83
2022/01/08 06:14:02;;;;;;;9.10;2.80;;;0.50;99.90;;;;;;6183182;23;20022;-82
2022/01/08 06:16:35;;;;;;;10.38;3.13;;;0.50;99.90;;;;;;6158681;23;20020;-82
2022/01/08 06:19:09;;;;;;;7.80;2.40;;;0.50;99.90;;;;;;6183164;23;20344;-82
2022/01/08 06:21:36;;;;;;;6.25;1.92;;;0.50;99.90;;;;;;6182753;23;20050;-82
2022/01/08 06:24:02;;;;;;;5.43;1.98;;;0.50;99.90;;;;;;6183390;23;20464;-82
2022/01/08 06:26:28;;;;;;;6.72;1.83;;;0.50;99.90;;;;;;6182676;23;20013;-82
2022/01/08 06:28:53;;;;;;;7.60;3.80;;;0.50;99.90;;;;;;6182709;23;20398;-82
2022/01/08 06:31:20;;;;;;;7.53;2.08;;;0.50;99.90;;;;;;6183730;23;20005;-82
2022/01/08 06:33:47;;;;;;;7.75;2.25;;;0.50;99.90;;;;;;6159192;23;20226;-81
2022/01/08 06:36:13;;;;;;;6.50;1.42;;;0.50;99.90;;;;;;6158438;23;20089;-82
2022/01/08 06:38:40;;;;;;;7.60;2.40;;;0.50;99.90;;;;;;6157513;23;20505;-82
2022/01/08 06:41:05;;;;;;;3.50;1.38;;;0.60;99.90;;;;;;6182867;23;20021;-81
2022/01/08 06:43:31;;;;;;;5.63;1.55;;;0.60;99.90;;;;;;6183690;23;20024;-81
2022/01/08 06:45:57;;;;;;;8.00;1.58;;;0.60;99.90;;;;;;6158564;23;20083;-81
2022/01/08 06:48:22;;;;;;;12.15;2.40;;;0.60;99.90;;;;;;6182009;23;20009;-82
2022/01/08 06:50:48;;;;;;;7.68;2.42;;;0.60;99.90;;;;;;6182336;23;20043;-82
2022/01/08 06:53:14;;;;;;;7.78;2.00;;;0.60;99.90;;;;;;6182314;23;20403;-82
2022/01/08 06:55:39;;;;;;;8.35;2.05;;;0.60;99.90;;;;;;6157457;23;20350;-82
2022/01/08 06:58:05;;;;;;;8.15;2.20;;;0.50;99.90;;;;;;6183007;23;20028;-81
2022/01/08 07:00:30;;;;;;;5.85;1.90;;;0.60;99.90;;;;;;6182249;23;20024;-82
2022/01/08 07:02:56;;;;;;;8.52;2.20;;;0.60;99.90;;;;;;6184209;23;20024;-82
2022/01/08 07:05:22;;;;;;;7.93;2.00;;;0.60;99.90;;;;;;6162321;23;20521;-82
2022/01/08 07:07:47;;;;;;;6.20;1.92;;;0.60;99.90;;;;;;6187660;23;20016;-82
2022/01/08 07:10:13;;;;;;;8.13;2.30;;;0.60;99.90;;;;;;6162434;23;20395;-82
2022/01/08 07:12:39;;;;;;;8.65;2.90;;;0.50;99.90;;;;;;6163344;23;20328;-82
2022/01/08 07:15:05;;;;;;;8.73;2.45;;;0.50;99.90;;;;;;6162564;23;20017;-82
2022/01/08 07:17:31;;;;;;;7.32;2.45;;;0.50;99.90;;;;;;6162891;23;20459;-82
2022/01/08 07:19:56;;;;;;;12.15;2.35;;;0.50;99.90;;;;;;6187268;23;20071;-82
2022/01/08 07:22:22;;;;;;;15.18;2.60;;;0.50;99.90;;;;;;6186505;23;20012;-83
2022/01/08 07:24:48;;;;;;;9.13;2.53;;;0.50;99.90;;;;;;6160312;23;20057;-82
2022/01/08 07:27:13;;;;;;;6.68;2.50;;;0.50;99.90;;;;;;6186675;23;20012;-82
2022/01/08 07:29:39;;;;;;;6.85;2.10;;;0.50;99.90;;;;;;6162075;23;20012;-82
2022/01/08 07:32:06;;;;;;;8.40;2.50;;;0.50;99.90;;;;;;6213456;23;20426;-82
2022/01/08 07:34:31;;;;;;;5.63;2.20;;;0.60;99.90;;;;;;6162077;23;20013;-82
2022/01/08 07:36:57;;;;;;;7.90;2.28;;;0.50;99.90;;;;;;6161967;23;20599;-82
2022/01/08 07:39:23;;;;;;;9.40;2.60;;;0.50;99.90;;;;;;6160151;23;20016;-83
2022/01/08 07:41:49;;;;;;;10.93;3.35;;;0.60;99.90;;;;;;6184751;23;20024;-82
2022/01/08 07:44:14;;;;;;;7.15;2.50;;;0.50;99.90;;;;;;6184360;23;20406;-82
2022/01/08 07:46:40;;;;;;;8.45;2.70;;;0.50;99.90;;;;;;6159734;23;20013;-82
2022/01/08 07:49:05;;;;;;;8.13;2.53;;;0.60;99.90;;;;;;6184467;23;20083;-81
2022/01/08 07:51:31;;;;;;;9.50;2.92;;;0.50;99.90;;;;;;6160289;23;20317;-81
2022/01/08 07:53:56;;;;;;;11.02;2.88;;;0.50;99.90;;;;;;6184905;23;20024;-81
2022/01/08 07:56:22;;;;;;;7.60;2.83;;;0.50;99.90;;;;;;6160284;23;20098;-82
2022/01/08 07:58:48;;;;;;;16.42;3.70;;;0.50;99.90;;;;;;6159975;23;20040;-82
2022/01/08 08:01:14;;;;;;;11.02;2.97;;;0.50;99.90;;;;;;6159253;23;20079;-82
2022/01/08 08:03:39;;;;;;;15.40;3.40;;;0.50;99.90;;;;;;6160106;23;20461;-82
2022/01/08 08:06:12;;;;;;;9.23;2.95;;;0.50;99.90;;;;;;6184988;23;20068;-82
2022/01/08 08:08:37;;;;;;;14.07;3.97;;;0.50;99.90;;;;;;6161141;23;20057;-82
2022/01/08 08:11:03;;;;;;;11.00;3.63;;;0.60;99.90;;;;;;6162508;23;20020;-82
2022/01/08 08:13:29;;;;;;;7.97;3.13;;;0.50;99.90;;;;;;6186278;23;20024;-82
2022/01/08 08:15:54;;;;;;;13.85;4.07;;;0.50;99.90;;;;;;6186462;23;20013;-82
2022/01/08 08:18:20;;;;;;;13.23;3.33;;;0.50;99.90;;;;;;6162093;23;20023;-82
2022/01/08 08:20:46;;;;;;;7.57;3.55;;;0.60;99.90;;;;;;6185901;23;20017;-81
2022/01/08 08:23:11;;;;;;;9.52;3.67;;;0.60;99.90;;;;;;6186139;23;20009;-82
2022/01/08 08:25:37;;;;;;;13.43;3.90;;;0.60;99.90;;;;;;6186429;23;20043;-82
2022/01/08 08:28:04;;;;;;;10.85;3.83;;;0.70;99.90;;;;;;6162536;23;20012;-82
2022/01/08 08:30:30;;;;;;;8.65;3.78;;;0.70;99.90;;;;;;6186995;23;20023;-81
2022/01/08 08:32:56;;;;;;;10.55;3.72;;;0.80;99.90;;;;;;6187533;23;20327;-82
2022/01/08 08:35:21;;;;;;;8.18;3.03;;;0.80;99.90;;;;;;6187652;23;20324;-82
2022/01/08 08:37:47;;;;;;;11.38;3.85;;;0.80;99.90;;;;;;6188412;23;20019;-82
2022/01/08 08:40:14;;;;;;;8.95;4.25;;;0.90;99.90;;;;;;6186106;23;20016;-81
2022/01/08 08:42:41;;;;;;;9.68;3.55;;;0.90;99.90;;;;;;6164100;23;20474;-81
2022/01/08 08:45:07;;;;;;;12.38;3.53;;;1.00;99.90;;;;;;6187751;23;20005;-82
2022/01/08 08:47:33;;;;;;;13.93;4.05;;;1.00;99.90;;;;;;6187781;23;20016;-81
2022/01/08 08:50:00;;;;;;;8.88;3.47;;;1.10;99.90;;;;;;6187714;23;20091;-81
2022/01/08 08:52:26;;;;;;;8.20;3.10;;;1.10;99.90;;;;;;6187672;23;20012;-82
2022/01/08 08:54:52;;;;;;;14.55;3.70;;;1.10;99.90;;;;;;6161916;23;20009;-82
2022/01/08 08:57:19;;;;;;;13.55;4.10;;;1.20;99.90;;;;;;6187976;23;20643;-82
2022/01/08 08:59:45;;;;;;;11.23;4.03;;;1.20;99.90;;;;;;6162503;23;20020;-82
2022/01/08 09:02:11;;;;;;;7.97;3.08;;;1.30;99.90;;;;;;6186906;23;20043;-82
2022/01/08 09:04:37;;;;;;;10.43;3.90;;;1.30;99.90;;;;;;6161937;23;20467;-82
2022/01/08 09:07:04;;;;;;;8.57;4.00;;;1.30;99.90;;;;;;6163131;23;20052;-82
2022/01/08 09:09:30;;;;;;;12.15;3.40;;;1.40;99.90;;;;;;6162011;23;20133;-82
2022/01/08 09:11:55;;;;;;;9.95;3.45;;;1.40;99.90;;;;;;6163906;23;20012;-82
2022/01/08 09:14:21;;;;;;;8.27;3.03;;;1.50;99.90;;;;;;6187615;23;20524;-82
2022/01/08 09:16:50;;;;;;;8.88;3.10;;;1.50;99.90;;;;;;6163646;23;20351;-82
2022/01/08 09:19:17;;;;;;;12.15;3.50;;;1.60;99.90;;;;;;6187191;23;20390;-82
2022/01/08 09:21:43;;;;;;;9.85;3.65;;;1.60;99.90;;;;;;6162854;23;20091;-82
2022/01/08 09:24:10;;;;;;;9.73;3.13;;;1.60;99.90;;;;;;6188071;23;20021;-81
2022/01/08 09:26:36;;;;;;;11.65;3.30;;;1.70;99.90;;;;;;6163120;23;20466;-81
2022/01/08 09:29:03;;;;;;;8.43;2.97;;;1.70;99.90;;;;;;6186982;23;20020;-81
2022/01/08 09:31:28;;;;;;;8.80;3.03;;;1.70;99.90;;;;;;6187867;23;20012;-81
2022/01/08 09:33:54;;;;;;;9.27;3.35;;;1.70;99.90;;;;;;6162461;23;20346;-82
2022/01/08 09:36:20;;;;;;;10.02;4.10;;;1.80;99.90;;;;;;6161863;23;20052;-82
2022/01/08 09:38:46;;;;;;;13.73;3.85;;;1.70;99.90;;;;;;6186301;23;20060;-81
2022/01/08 09:41:11;;;;;;;11.38;3.63;;;1.70;99.90;;;;;;6161514;23;20019;-81
2022/01/08 09:43:37;;;;;;;8.75;4.22;;;1.80;99.90;;;;;;6162291;23;20459;-81
2022/01/08 09:46:04;;;;;;;9.95;4.30;;;1.80;99.90;;;;;;6188050;23;20017;-82
2022/01/08 09:48:30;;;;;;;6.75;3.67;;;1.80;99.90;;;;;;6184289;23;20021;-82
2022/01/08 09:50:55;;;;;;;14.20;4.40;;;1.80;99.90;;;;;;6186021;23;20043;-81
2022/01/08 09:53:21;;;;;;;14.32;4.78;;;1.80;99.90;;;;;;6184833;23;20348;-82
2022/01/08 09:55:48;;;;;;;10.25;4.32;;;1.80;99.90;;;;;;6185601;23;20039;-82
2022/01/08 09:58:13;;;;;;;8.70;4.07;;;1.90;99.90;;;;;;6183529;23;20092;-82
2022/01/08 10:00:40;;;;;;;8.43;4.03;;;2.00;99.90;;;;;;6157860;23;20850;-82
2022/01/08 10:03:22;;;;;;;7.07;3.92;;;2.10;99.90;;;;;;6184839;23;20009;-82
2022/01/08 10:05:56;;;;;;;14.77;4.70;;;2.20;99.90;;;;;;6158527;23;20096;-82
2022/01/08 10:08:27;;;;;;;7.15;4.15;;;2.20;99.90;;;;;;6183180;23;20008;-82
2022/01/08 10:10:55;;;;;;;15.88;4.32;;;2.20;99.90;;;;;;6183741;23;20019;-82
2022/01/08 10:13:23;;;;;;;9.73;4.88;;;2.20;99.90;;;;;;6159055;23;20097;-82
2022/01/08 10:18:36;;;;;;;11.32;5.40;;;2.30;99.90;;;;;;6185086;23;20025;-82
2022/01/08 10:21:27;;;;;;;10.95;5.22;;;2.40;99.90;;;;;;6184765;23;20023;-82
2022/01/08 10:24:03;;;;;;;9.77;4.70;;;2.40;99.90;;;;;;6184277;23;20390;-83
2022/01/08 10:26:33;;;;;;;13.70;5.30;;;2.50;99.90;;;;;;6161407;23;20332;-83
2022/01/08 10:29:03;;;;;;;13.45;5.22;;;2.50;99.90;;;;;;6159734;23;20016;-83
2022/01/08 10:31:31;;;;;;;11.45;4.85;;;2.50;99.90;;;;;;6185425;23;20009;-82
2022/01/08 10:34:03;;;;;;;10.13;5.13;;;2.60;99.90;;;;;;6185624;23;20039;-82
2022/01/08 10:36:37;;;;;;;12.18;6.05;;;2.60;99.90;;;;;;6159766;23;20023;-82
2022/01/08 10:39:18;;;;;;;12.80;4.80;;;2.70;99.90;;;;;;6183227;23;20020;-82
2022/01/08 10:41:45;;;;;;;14.57;5.55;;;2.70;99.90;;;;;;6184980;23;20020;-82
2022/01/08 10:44:14;;;;;;;11.30;5.85;;;2.80;99.90;;;;;;6160576;23;20438;-82
2022/01/08 10:46:45;;;;;;;11.30;5.53;;;2.90;99.90;;;;;;6157434;23;20017;-82
2022/01/08 10:49:13;;;;;;;12.77;5.10;;;3.00;99.90;;;;;;6186040;23;20035;-82
2022/01/08 10:51:40;;;;;;;14.43;5.70;;;3.10;99.90;;;;;;6160009;23;20110;-82
2022/01/08 10:54:15;;;;;;;9.90;5.13;;;3.20;99.90;;;;;;6160547;23;20451;-82
2022/01/08 10:56:46;;;;;;;13.13;5.45;;;3.30;99.90;;;;;;6185202;23;20063;-82
2022/01/08 10:59:18;;;;;;;12.80;5.22;;;3.40;99.90;;;;;;6183645;23;20015;-82
2022/01/08 11:02:05;;;;;;;15.98;6.05;;;3.50;99.90;;;;;;6158093;23;20009;-82
2022/01/08 11:04:39;;;;;;;13.48;4.85;;;3.60;99.90;;;;;;6178452;23;20028;-82
2022/01/08 11:07:20;;;;;;;13.63;6.25;;;3.60;99.90;;;;;;6179262;23;20025;-82
2022/01/08 11:09:48;;;;;;;13.65;5.75;;;3.60;99.90;;;;;;6176696;23;20009;-82
2022/01/08 11:12:20;;;;;;;10.57;6.32;;;3.50;99.90;;;;;;6152981;23;20083;-82
2022/01/08 11:17:27;;;;;;;13.88;6.50;;;3.50;99.90;;;;;;6178243;23;20025;-82
2022/01/08 11:19:58;;;;;;;11.50;4.40;;;3.50;99.90;;;;;;6154158;23;20009;-82
2022/01/08 11:22:30;;;;;;;15.68;6.53;;;3.60;99.90;;;;;;6153883;23;20075;-82
2022/01/08 11:24:59;;;;;;;13.05;6.15;;;3.60;99.90;;;;;;6179842;23;20058;-82
2022/01/08 11:27:35;;;;;;;15.40;7.25;;;3.60;99.90;;;;;;6179879;23;20088;-82
2022/01/08 11:30:25;;;;;;;14.50;7.07;;;3.60;99.90;;;;;;6179162;23;20447;-82
2022/01/08 11:32:55;;;;;;;13.93;7.38;;;3.80;99.90;;;;;;6155417;23;20027;-82
2022/01/08 11:35:22;;;;;;;13.23;7.65;;;3.80;99.90;;;;;;6181124;23;20017;-83
2022/01/08 11:37:50;;;;;;;13.50;8.65;;;3.80;99.90;;;;;;6176455;23;20056;-83
2022/01/08 11:40:20;;;;;;;13.45;8.10;;;3.90;99.90;;;;;;6152005;23;20430;-83
2022/01/08 11:42:47;;;;;;;14.95;8.98;;;3.90;99.90;;;;;;6177495;23;20447;-83
2022/01/08 11:45:16;;;;;;;12.95;7.80;;;3.80;99.90;;;;;;6180015;23;20020;-83
2022/01/08 11:47:51;;;;;;;18.80;10.38;;;3.80;99.90;;;;;;6154809;23;20489;-83
2022/01/08 11:50:31;;;;;;;18.33;9.88;;;3.80;99.90;;;;;;6177645;23;20034;-83
2022/01/08 11:53:18;;;;;;;15.90;9.52;;;3.80;99.90;;;;;;6179513;23;20001;-83
2022/01/08 11:55:48;;;;;;;15.80;9.98;;;3.80;99.90;;;;;;6178134;23;20021;-82
2022/01/08 11:58:26;;;;;;;15.82;10.30;;;3.80;99.90;;;;;;6154965;23;20459;-82
2022/01/08 12:00:57;;;;;;;17.77;10.75;;;3.70;99.90;;;;;;6153898;23;20019;-82
2022/01/08 12:03:25;;;;;;;32.05;11.60;;;3.80;99.90;;;;;;6154094;23;20091;-82
2022/01/08 12:05:51;;;;;;;19.70;10.43;;;3.80;99.90;;;;;;6178237;23;20019;-82
2022/01/08 12:08:18;;;;;;;18.00;9.55;;;3.80;99.90;;;;;;6179368;23;20312;-82
2022/01/08 12:10:56;;;;;;;21.48;11.55;;;3.70;99.90;;;;;;6178442;23;20152;-82
2022/01/08 12:13:50;;;;;;;17.83;10.75;;;3.80;99.90;;;;;;6178912;23;20024;-82
2022/01/08 12:16:36;;;;;;;19.95;11.13;;;3.80;99.90;;;;;;6179901;23;20336;-82
2022/01/08 12:19:04;;;;;;;21.65;11.85;;;3.80;99.90;;;;;;6179682;23;20083;-82
2022/01/08 12:21:41;;;;;;;16.05;8.45;;;3.80;99.90;;;;;;6179277;23;20092;-83
2022/01/08 12:24:25;;;;;;;12.50;8.52;;;3.90;99.90;;;;;;6178004;23;20013;-83
2022/01/08 12:26:51;;;;;;;19.75;10.43;;;3.90;99.90;;;;;;6180947;23;20013;-83
2022/01/08 12:29:37;;;;;;;18.67;10.80;;;3.90;99.90;;;;;;6178225;23;20016;-83
2022/01/08 12:32:26;;;;;;;14.13;8.32;;;3.90;99.90;;;;;;6155794;23;20024;-83
2022/01/08 12:35:01;;;;;;;13.18;7.68;;;4.00;99.90;;;;;;6178241;23;20024;-83
2022/01/08 12:37:38;;;;;;;15.13;8.20;;;4.00;99.90;;;;;;6155379;23;20066;-82
2022/01/08 12:40:05;;;;;;;15.45;8.23;;;4.00;99.90;;;;;;6178683;23;20415;-82
2022/01/08 12:42:33;;;;;;;15.02;7.65;;;4.00;99.90;;;;;;6179834;23;20028;-83
2022/01/08 12:45:00;;;;;;;14.65;7.40;;;4.00;99.90;;;;;;6177699;23;20016;-82
2022/01/08 12:47:57;;;;;;;13.95;7.55;;;4.10;99.90;;;;;;6175792;23;20016;-83
2022/01/08 12:50:25;;;;;;;13.70;7.38;;;4.00;99.90;;;;;;6154139;23;20501;-82
2022/01/08 12:53:06;;;;;;;11.18;6.55;;;4.00;99.90;;;;;;6180158;23;20028;-82
2022/01/08 12:55:40;;;;;;;11.23;6.05;;;4.00;99.90;;;;;;6154649;23;20114;-82
2022/01/08 12:58:15;;;;;;;11.48;5.35;;;4.00;99.90;;;;;;6181137;23;20020;-82
2022/01/08 13:01:02;;;;;;;14.57;7.30;;;4.00;99.90;;;;;;6155795;23;20021;-82
2022/01/08 13:03:32;;;;;;;13.75;7.13;;;3.90;99.90;;;;;;6153930;23;20024;-82
2022/01/08 13:06:00;;;;;;;16.42;6.32;;;3.90;99.90;;;;;;6156827;23;20020;-82
2022/01/08 13:08:28;;;;;;;14.05;6.43;;;3.90;99.90;;;;;;6181303;23;20005;-82
2022/01/08 13:11:00;;;;;;;12.75;6.10;;;3.90;99.90;;;;;;6180980;23;20051;-82
2022/01/08 13:13:39;;;;;;;14.95;6.32;;;3.90;99.90;;;;;;6182349;23;20120;-82
2022/01/08 13:16:17;;;;;;;13.75;6.85;;;3.80;99.90;;;;;;6180766;23;20048;-82
2022/01/08 13:18:53;;;;;;;13.48;6.75;;;3.80;99.90;;;;;;6179674;23;20104;-82
2022/01/08 13:21:22;;;;;;;11.23;6.13;;;3.80;99.90;;;;;;6179656;23;20009;-82
2022/01/08 13:23:50;;;;;;;10.07;5.82;;;3.80;99.90;;;;;;6178853;23;20013;-82